sensor_id;sensor_type;location;lat;lon;timestamp;temperature;humidity
6666;DHT22;3369;49.906;8.598;2023-02-11T00:00:12;1.80;99.90
6666;DHT22;3369;49.906;8.598;2023-02-11T00:02:38;1.80;99.90
6666;DHT22;3369;49.906;8.598;2023-02-11T00:05:05;1.80;99.90
6666;DHT22;3369;49.906;8.598;2023-02-11T00:07:32;1.80;99.90
6666;DHT22;3369;49.906;8.598;2023-02-11T00:09:57;1.80;99.90
6666;DHT22;3369;49.906;8.598;2023-02-11T00:12:24;1.90;99.90
6666;DHT22;3369;49.906;8.598;2023-02-11T00:14:50;1.80;99.90
6666;DHT22;3369;49.906;8.598;2023-02-11T00:17:16;1.90;99.90
6666;DHT22;3369;49.906;8.598;2023-02-11T00:19:42;1.90;99.90
6666;DHT22;3369;49.906;8.598;2023-02-11T00:22:07;1.90;99.90
6666;DHT22;3369;49.906;8.598;2023-02-11T00:24:35;1.90;99.90
6666;DHT22;3369;49.906;8.598;2023-02-11T00:27:01;1.90;99.90
6666;DHT22;3369;49.906;8.598;2023-02-11T00:29:27;1.90;99.90
6666;DHT22;3369;49.906;8.598;2023-02-11T00:31:52;1.80;99.90
6666;DHT22;3369;49.906;8.598;2023-02-11T00:34:18;1.90;99.90
6666;DHT22;3369;49.906;8.598;2023-02-11T00:36:43;1.80;99.90
6666;DHT22;3369;49.906;8.598;2023-02-11T00:39:09;1.80;99.90
6666;DHT22;3369;49.906;8.598;2023-02-11T00:41:35;1.80;99.90
6666;DHT22;3369;49.906;8.598;2023-02-11T00:44:01;1.80;99.90
6666;DHT22;3369;49.906;8.598;2023-02-11T00:46:27;1.80;99.90
6666;DHT22;3369;49.906;8.598;2023-02-11T00:48:53;1.80;99.90
6666;DHT22;3369;49.906;8.598;2023-02-11T00:51:26;1.80;99.90
6666;DHT22;3369;49.906;8.598;2023-02-11T00:53:52;1.80;99.90
6666;DHT22;3369;49.906;8.598;2023-02-11T00:56:18;1.80;99.90
6666;DHT22;3369;49.906;8.598;2023-02-11T00:58:44;1.80;99.90
6666;DHT22;3369;49.906;8.598;2023-02-11T01:01:10;1.80;99.90
6666;DHT22;3369;49.906;8.598;2023-02-11T01:03:37;1.90;99.90
6666;DHT22;3369;49.906;8.598;2023-02-11T01:06:03;1.80;99.90
6666;DHT22;3369;49.906;8.598;2023-02-11T01:08:32;1.90;99.90
6666;DHT22;3369;49.906;8.598;2023-02-11T01:11:01;1.90;99.90
6666;DHT22;3369;49.906;8.598;2023-02-11T01:13:28;1.90;99.90
6666;DHT22;3369;49.906;8.598;2023-02-11T01:15:55;1.90;99.90
6666;DHT22;3369;49.906;8.598;2023-02-11T01:18:20;1.90;99.90
6666;DHT22;3369;49.906;8.598;2023-02-11T01:20:46;2.00;99.90
6666;DHT22;3369;49.906;8.598;2023-02-11T01:23:12;2.00;99.90
6666;DHT22;3369;49.906;8.598;2023-02-11T01:25:37;2.00;99.90
6666;DHT22;3369;49.906;8.598;2023-02-11T01:28:03;2.00;99.90
6666;DHT22;3369;49.906;8.598;2023-02-11T01:30:29;2.10;99.90
6666;DHT22;3369;49.906;8.598;2023-02-11T01:32:54;2.10;99.90
6666;DHT22;3369;49.906;8.598;2023-02-11T01:35:20;2.10;99.90
6666;DHT22;3369;49.906;8.598;2023-02-11T01:37:45;2.10;99.90
6666;DHT22;3369;49.906;8.598;2023-02-11T01:40:15;2.10;99.90
6666;DHT22;3369;49.906;8.598;2023-02-11T01:42:41;2.10;99.90
6666;DHT22;3369;49.906;8.598;2023-02-11T01:48:03;2.20;99.90
6666;DHT22;3369;49.906;8.598;2023-02-11T01:50:30;2.20;99.90
6666;DHT22;3369;49.906;8.598;2023-02-11T01:52:55;2.20;99.90
6666;DHT22;3369;49.906;8.598;2023-02-11T01:55:41;2.20;99.90
6666;DHT22;3369;49.906;8.598;2023-02-11T01:58:26;2.20;99.90
6666;DHT22;3369;49.906;8.598;2023-02-11T02:00:53;2.30;99.90
6666;DHT22;3369;49.906;8.598;2023-02-11T02:03:20;2.30;99.90
6666;DHT22;3369;49.906;8.598;2023-02-11T02:05:57;2.30;99.90
6666;DHT22;3369;49.906;8.598;2023-02-11T02:10:57;2.30;99.90
6666;DHT22;3369;49.906;8.598;2023-02-11T02:13:26;2.30;99.90
6666;DHT22;3369;49.906;8.598;2023-02-11T02:15:55;2.30;99.90
6666;DHT22;3369;49.906;8.598;2023-02-11T02:39:54;1.90;99.90
6666;DHT22;3369;49.906;8.598;2023-02-11T02:42:22;1.90;99.90
6666;DHT22;3369;49.906;8.598;2023-02-11T02:44:49;1.90;99.90
6666;DHT22;3369;49.906;8.598;2023-02-11T02:47:14;1.90;99.90
6666;DHT22;3369;49.906;8.598;2023-02-11T02:49:40;1.90;99.90
6666;DHT22;3369;49.906;8.598;2023-02-11T02:55:44;2.00;99.90
6666;DHT22;3369;49.906;8.598;2023-02-11T03:01:13;2.10;99.90
6666;DHT22;3369;49.906;8.598;2023-02-11T03:09:26;2.20;99.90
6666;DHT22;3369;49.906;8.598;2023-02-11T03:11:53;2.20;99.90
6666;DHT22;3369;49.906;8.598;2023-02-11T03:14:21;2.20;99.90
6666;DHT22;3369;49.906;8.598;2023-02-11T03:16:49;2.30;99.90
6666;DHT22;3369;49.906;8.598;2023-02-11T03:19:31;2.20;99.90
6666;DHT22;3369;49.906;8.598;2023-02-11T03:21:58;2.30;99.90
6666;DHT22;3369;49.906;8.598;2023-02-11T03:24:30;2.30;99.90
6666;DHT22;3369;49.906;8.598;2023-02-11T03:27:00;2.30;99.90
6666;DHT22;3369;49.906;8.598;2023-02-11T03:29:38;2.30;99.90
6666;DHT22;3369;49.906;8.598;2023-02-11T03:32:18;2.40;99.90
6666;DHT22;3369;49.906;8.598;2023-02-11T03:37:56;2.30;99.90
6666;DHT22;3369;49.906;8.598;2023-02-11T03:40:31;2.30;99.90
6666;DHT22;3369;49.906;8.598;2023-02-11T03:43:05;2.30;99.90
6666;DHT22;3369;49.906;8.598;2023-02-11T03:45:32;2.30;99.90
6666;DHT22;3369;49.906;8.598;2023-02-11T03:48:06;2.30;99.90
6666;DHT22;3369;49.906;8.598;2023-02-11T03:50:35;2.30;99.90
6666;DHT22;3369;49.906;8.598;2023-02-11T03:53:01;2.30;99.90
6666;DHT22;3369;49.906;8.598;2023-02-11T03:55:29;2.30;99.90
6666;DHT22;3369;49.906;8.598;2023-02-11T03:57:56;2.30;99.90
6666;DHT22;3369;49.906;8.598;2023-02-11T04:00:29;2.20;99.90
6666;DHT22;3369;49.906;8.598;2023-02-11T04:02:55;2.20;99.90
6666;DHT22;3369;49.906;8.598;2023-02-11T04:05:20;2.20;99.90
6666;DHT22;3369;49.906;8.598;2023-02-11T04:07:46;2.10;99.90
6666;DHT22;3369;49.906;8.598;2023-02-11T04:10:11;2.10;99.90
6666;DHT22;3369;49.906;8.598;2023-02-11T04:12:37;2.10;99.90
6666;DHT22;3369;49.906;8.598;2023-02-11T04:15:03;2.10;99.90
6666;DHT22;3369;49.906;8.598;2023-02-11T04:17:29;2.10;99.90
6666;DHT22;3369;49.906;8.598;2023-02-11T04:19:54;2.10;99.90
6666;DHT22;3369;49.906;8.598;2023-02-11T04:22:20;2.10;99.90
6666;DHT22;3369;49.906;8.598;2023-02-11T04:24:46;2.10;99.90
6666;DHT22;3369;49.906;8.598;2023-02-11T04:27:11;2.10;99.90
6666;DHT22;3369;49.906;8.598;2023-02-11T04:29:37;2.10;99.90
6666;DHT22;3369;49.906;8.598;2023-02-11T04:32:03;2.10;99.90
6666;DHT22;3369;49.906;8.598;2023-02-11T04:34:28;2.20;99.90
6666;DHT22;3369;49.906;8.598;2023-02-11T04:36:54;2.20;99.90
6666;DHT22;3369;49.906;8.598;2023-02-11T04:39:19;2.20;99.90
6666;DHT22;3369;49.906;8.598;2023-02-11T04:41:45;2.20;99.90
6666;DHT22;3369;49.906;8.598;2023-02-11T04:44:10;2.20;99.90
6666;DHT22;3369;49.906;8.598;2023-02-11T04:46:36;2.20;99.90
6666;DHT22;3369;49.906;8.598;2023-02-11T04:49:02;2.20;99.90
6666;DHT22;3369;49.906;8.598;2023-02-11T04:51:27;2.20;99.90
6666;DHT22;3369;49.906;8.598;2023-02-11T04:53:53;2.30;99.90
6666;DHT22;3369;49.906;8.598;2023-02-11T04:56:19;2.30;99.90
6666;DHT22;3369;49.906;8.598;2023-02-11T04:58:44;2.30;99.90
6666;DHT22;3369;49.906;8.598;2023-02-11T05:01:12;2.20;99.90
6666;DHT22;3369;49.906;8.598;2023-02-11T05:03:39;2.30;99.90
6666;DHT22;3369;49.906;8.598;2023-02-11T05:06:05;2.30;99.90
6666;DHT22;3369;49.906;8.598;2023-02-11T05:08:31;2.30;99.90
6666;DHT22;3369;49.906;8.598;2023-02-11T05:10:57;2.40;99.90
6666;DHT22;3369;49.906;8.598;2023-02-11T05:13:23;2.30;99.90
6666;DHT22;3369;49.906;8.598;2023-02-11T05:15:48;2.30;99.90
6666;DHT22;3369;49.906;8.598;2023-02-11T05:18:14;2.30;99.90
6666;DHT22;3369;49.906;8.598;2023-02-11T05:20:43;2.30;99.90
6666;DHT22;3369;49.906;8.598;2023-02-11T05:23:09;2.30;99.90
6666;DHT22;3369;49.906;8.598;2023-02-11T05:25:35;2.30;99.90
6666;DHT22;3369;49.906;8.598;2023-02-11T05:28:02;2.30;99.90
6666;DHT22;3369;49.906;8.598;2023-02-11T05:30:28;2.20;99.90
6666;DHT22;3369;49.906;8.598;2023-02-11T05:32:53;2.20;99.90
6666;DHT22;3369;49.906;8.598;2023-02-11T05:35:19;2.30;99.90
6666;DHT22;3369;49.906;8.598;2023-02-11T05:37:45;2.20;99.90
6666;DHT22;3369;49.906;8.598;2023-02-11T05:40:10;2.30;99.90
6666;DHT22;3369;49.906;8.598;2023-02-11T05:42:36;2.30;99.90
6666;DHT22;3369;49.906;8.598;2023-02-11T05:45:02;2.30;99.90
6666;DHT22;3369;49.906;8.598;2023-02-11T05:47:28;2.30;99.90
6666;DHT22;3369;49.906;8.598;2023-02-11T05:49:54;2.40;99.90
6666;DHT22;3369;49.906;8.598;2023-02-11T05:52:20;2.30;99.90
6666;DHT22;3369;49.906;8.598;2023-02-11T05:54:46;2.30;99.90
6666;DHT22;3369;49.906;8.598;2023-02-11T05:57:12;2.40;99.90
6666;DHT22;3369;49.906;8.598;2023-02-11T05:59:39;2.40;99.90
6666;DHT22;3369;49.906;8.598;2023-02-11T06:02:04;2.40;99.90
6666;DHT22;3369;49.906;8.598;2023-02-11T06:04:32;2.40;99.90
6666;DHT22;3369;49.906;8.598;2023-02-11T06:06:58;2.50;99.90
6666;DHT22;3369;49.906;8.598;2023-02-11T06:09:24;2.40;99.90
6666;DHT22;3369;49.906;8.598;2023-02-11T06:11:49;2.40;99.90
6666;DHT22;3369;49.906;8.598;2023-02-11T06:14:15;2.40;99.90
6666;DHT22;3369;49.906;8.598;2023-02-11T06:16:40;2.50;99.90
6666;DHT22;3369;49.906;8.598;2023-02-11T06:19:06;2.40;99.90
6666;DHT22;3369;49.906;8.598;2023-02-11T06:21:32;2.40;99.90
6666;DHT22;3369;49.906;8.598;2023-02-11T06:23:57;2.40;99.90
6666;DHT22;3369;49.906;8.598;2023-02-11T06:26:23;2.40;99.90
6666;DHT22;3369;49.906;8.598;2023-02-11T06:28:49;2.40;99.90
6666;DHT22;3369;49.906;8.598;2023-02-11T06:31:15;2.40;99.90
6666;DHT22;3369;49.906;8.598;2023-02-11T06:33:41;2.40;99.90
6666;DHT22;3369;49.906;8.598;2023-02-11T06:36:17;2.40;99.90
6666;DHT22;3369;49.906;8.598;2023-02-11T06:38:44;2.40;99.90
6666;DHT22;3369;49.906;8.598;2023-02-11T06:41:10;2.40;99.90
6666;DHT22;3369;49.906;8.598;2023-02-11T06:43:36;2.40;99.90
6666;DHT22;3369;49.906;8.598;2023-02-11T06:46:02;2.30;99.90
6666;DHT22;3369;49.906;8.598;2023-02-11T06:48:28;2.30;99.90
6666;DHT22;3369;49.906;8.598;2023-02-11T06:50:53;2.30;99.90
6666;DHT22;3369;49.906;8.598;2023-02-11T06:53:19;2.30;99.90
6666;DHT22;3369;49.906;8.598;2023-02-11T06:55:45;2.30;99.90
6666;DHT22;3369;49.906;8.598;2023-02-11T06:58:10;2.20;99.90
6666;DHT22;3369;49.906;8.598;2023-02-11T07:00:36;2.20;99.90
6666;DHT22;3369;49.906;8.598;2023-02-11T07:03:02;2.20;99.90
6666;DHT22;3369;49.906;8.598;2023-02-11T07:05:28;2.20;99.90
6666;DHT22;3369;49.906;8.598;2023-02-11T07:07:53;2.20;99.90
6666;DHT22;3369;49.906;8.598;2023-02-11T07:10:19;2.20;99.90
6666;DHT22;3369;49.906;8.598;2023-02-11T07:12:45;2.20;99.90
6666;DHT22;3369;49.906;8.598;2023-02-11T07:15:10;2.20;99.90
6666;DHT22;3369;49.906;8.598;2023-02-11T07:17:36;2.20;99.90
6666;DHT22;3369;49.906;8.598;2023-02-11T07:20:02;2.20;99.90
6666;DHT22;3369;49.906;8.598;2023-02-11T07:22:28;2.20;99.90
6666;DHT22;3369;49.906;8.598;2023-02-11T07:24:53;2.20;99.90
6666;DHT22;3369;49.906;8.598;2023-02-11T07:27:19;2.20;99.90
6666;DHT22;3369;49.906;8.598;2023-02-11T07:29:44;2.20;99.90
6666;DHT22;3369;49.906;8.598;2023-02-11T07:32:14;2.20;99.90
6666;DHT22;3369;49.906;8.598;2023-02-11T07:34:39;2.20;99.90
6666;DHT22;3369;49.906;8.598;2023-02-11T07:37:05;2.20;99.90
6666;DHT22;3369;49.906;8.598;2023-02-11T07:39:31;2.20;99.90
6666;DHT22;3369;49.906;8.598;2023-02-11T07:41:56;2.20;99.90
6666;DHT22;3369;49.906;8.598;2023-02-11T07:44:22;2.20;99.90
6666;DHT22;3369;49.906;8.598;2023-02-11T07:46:48;2.30;99.90
6666;DHT22;3369;49.906;8.598;2023-02-11T07:49:14;2.30;99.90
6666;DHT22;3369;49.906;8.598;2023-02-11T07:51:40;2.30;99.90
6666;DHT22;3369;49.906;8.598;2023-02-11T07:54:06;2.20;99.90
6666;DHT22;3369;49.906;8.598;2023-02-11T07:56:32;2.20;99.90
6666;DHT22;3369;49.906;8.598;2023-02-11T07:58:59;2.20;99.90
6666;DHT22;3369;49.906;8.598;2023-02-11T08:01:25;2.20;99.90
6666;DHT22;3369;49.906;8.598;2023-02-11T08:03:53;2.30;99.90
6666;DHT22;3369;49.906;8.598;2023-02-11T08:06:21;2.30;99.90
6666;DHT22;3369;49.906;8.598;2023-02-11T08:08:48;2.40;99.90
6666;DHT22;3369;49.906;8.598;2023-02-11T08:11:22;2.40;99.90
6666;DHT22;3369;49.906;8.598;2023-02-11T08:13:48;2.50;99.90
6666;DHT22;3369;49.906;8.598;2023-02-11T08:16:33;2.50;99.90
6666;DHT22;3369;49.906;8.598;2023-02-11T08:19:02;2.60;99.90
6666;DHT22;3369;49.906;8.598;2023-02-11T08:21:28;2.70;99.90
6666;DHT22;3369;49.906;8.598;2023-02-11T08:23:54;2.80;99.90
6666;DHT22;3369;49.906;8.598;2023-02-11T08:26:23;2.90;99.90
6666;DHT22;3369;49.906;8.598;2023-02-11T08:28:51;2.90;99.90
6666;DHT22;3369;49.906;8.598;2023-02-11T08:31:23;3.00;99.90
6666;DHT22;3369;49.906;8.598;2023-02-11T08:33:49;2.90;99.90
6666;DHT22;3369;49.906;8.598;2023-02-11T08:36:17;3.00;99.90
6666;DHT22;3369;49.906;8.598;2023-02-11T08:38:44;3.00;99.90
6666;DHT22;3369;49.906;8.598;2023-02-11T08:41:10;3.10;99.90
6666;DHT22;3369;49.906;8.598;2023-02-11T08:43:36;3.10;99.90
6666;DHT22;3369;49.906;8.598;2023-02-11T08:46:06;3.20;99.90
6666;DHT22;3369;49.906;8.598;2023-02-11T08:48:31;3.30;99.90
6666;DHT22;3369;49.906;8.598;2023-02-11T08:50:57;3.30;99.90
6666;DHT22;3369;49.906;8.598;2023-02-11T08:53:23;3.40;99.90
6666;DHT22;3369;49.906;8.598;2023-02-11T08:55:50;3.40;99.90
6666;DHT22;3369;49.906;8.598;2023-02-11T08:58:16;3.50;99.90
6666;DHT22;3369;49.906;8.598;2023-02-11T09:00:43;3.70;99.90
6666;DHT22;3369;49.906;8.598;2023-02-11T09:03:10;3.60;99.90
6666;DHT22;3369;49.906;8.598;2023-02-11T09:05:47;3.70;99.90
6666;DHT22;3369;49.906;8.598;2023-02-11T09:08:14;3.60;99.90
6666;DHT22;3369;49.906;8.598;2023-02-11T09:10:39;3.60;99.90
6666;DHT22;3369;49.906;8.598;2023-02-11T09:13:06;3.60;99.90
6666;DHT22;3369;49.906;8.598;2023-02-11T09:15:32;3.60;99.90
6666;DHT22;3369;49.906;8.598;2023-02-11T09:17:58;3.60;99.90
6666;DHT22;3369;49.906;8.598;2023-02-11T09:20:24;3.60;99.90
6666;DHT22;3369;49.906;8.598;2023-02-11T09:22:52;3.60;99.90
6666;DHT22;3369;49.906;8.598;2023-02-11T09:25:18;3.70;99.90
6666;DHT22;3369;49.906;8.598;2023-02-11T09:27:43;3.70;99.90
6666;DHT22;3369;49.906;8.598;2023-02-11T09:30:10;3.70;99.90
6666;DHT22;3369;49.906;8.598;2023-02-11T09:32:35;3.80;99.90
6666;DHT22;3369;49.906;8.598;2023-02-11T09:35:01;3.90;99.90
6666;DHT22;3369;49.906;8.598;2023-02-11T09:37:27;3.90;99.90
6666;DHT22;3369;49.906;8.598;2023-02-11T09:39:52;3.90;99.90
6666;DHT22;3369;49.906;8.598;2023-02-11T09:44:44;3.90;99.90
6666;DHT22;3369;49.906;8.598;2023-02-11T09:47:29;4.00;99.90
6666;DHT22;3369;49.906;8.598;2023-02-11T09:50:00;4.00;99.90
6666;DHT22;3369;49.906;8.598;2023-02-11T09:55:32;4.10;99.90
6666;DHT22;3369;49.906;8.598;2023-02-11T09:58:03;4.10;99.90
6666;DHT22;3369;49.906;8.598;2023-02-11T10:00:38;4.20;99.90
6666;DHT22;3369;49.906;8.598;2023-02-11T10:18:07;4.60;99.90
6666;DHT22;3369;49.906;8.598;2023-02-11T10:23:28;4.70;99.90
6666;DHT22;3369;49.906;8.598;2023-02-11T10:25:56;4.70;99.90
6666;DHT22;3369;49.906;8.598;2023-02-11T10:28:29;4.80;99.90
6666;DHT22;3369;49.906;8.598;2023-02-11T10:31:08;4.80;99.90
6666;DHT22;3369;49.906;8.598;2023-02-11T10:33:39;4.80;99.90
6666;DHT22;3369;49.906;8.598;2023-02-11T10:36:12;4.80;99.90
6666;DHT22;3369;49.906;8.598;2023-02-11T10:38:38;4.80;99.90
6666;DHT22;3369;49.906;8.598;2023-02-11T10:41:04;4.80;99.90
6666;DHT22;3369;49.906;8.598;2023-02-11T10:43:31;4.80;99.90
6666;DHT22;3369;49.906;8.598;2023-02-11T10:45:59;4.90;99.90
6666;DHT22;3369;49.906;8.598;2023-02-11T10:48:44;4.90;99.90
6666;DHT22;3369;49.906;8.598;2023-02-11T10:51:30;4.90;99.90
6666;DHT22;3369;49.906;8.598;2023-02-11T10:56:36;5.00;99.90
6666;DHT22;3369;49.906;8.598;2023-02-11T10:59:32;5.00;99.90
6666;DHT22;3369;49.906;8.598;2023-02-11T11:02:03;5.00;99.90
6666;DHT22;3369;49.906;8.598;2023-02-11T11:04:38;5.00;99.90
6666;DHT22;3369;49.906;8.598;2023-02-11T11:09:49;5.00;99.90
6666;DHT22;3369;49.906;8.598;2023-02-11T11:15:18;5.10;99.90
6666;DHT22;3369;49.906;8.598;2023-02-11T11:17:49;5.10;99.90
6666;DHT22;3369;49.906;8.598;2023-02-11T11:22:51;5.10;99.90
6666;DHT22;3369;49.906;8.598;2023-02-11T11:25:26;5.20;99.90
6666;DHT22;3369;49.906;8.598;2023-02-11T11:27:55;5.20;99.90
6666;DHT22;3369;49.906;8.598;2023-02-11T11:30:24;5.20;99.90
6666;DHT22;3369;49.906;8.598;2023-02-11T11:32:51;5.30;99.90
6666;DHT22;3369;49.906;8.598;2023-02-11T11:35:24;5.30;99.90
6666;DHT22;3369;49.906;8.598;2023-02-11T11:37:57;5.40;99.90
6666;DHT22;3369;49.906;8.598;2023-02-11T11:40:29;5.40;99.90
6666;DHT22;3369;49.906;8.598;2023-02-11T11:43:16;5.50;99.90
6666;DHT22;3369;49.906;8.598;2023-02-11T11:45:58;5.50;99.90
6666;DHT22;3369;49.906;8.598;2023-02-11T11:48:36;5.60;99.90
6666;DHT22;3369;49.906;8.598;2023-02-11T11:51:05;5.70;99.90
6666;DHT22;3369;49.906;8.598;2023-02-11T11:53:36;5.70;99.90
6666;DHT22;3369;49.906;8.598;2023-02-11T11:56:15;5.70;99.90
6666;DHT22;3369;49.906;8.598;2023-02-11T11:58:41;5.80;99.90
6666;DHT22;3369;49.906;8.598;2023-02-11T12:10:03;5.80;99.90
6666;DHT22;3369;49.906;8.598;2023-02-11T12:23:18;5.80;99.90
6666;DHT22;3369;49.906;8.598;2023-02-11T12:25:53;5.80;99.90
6666;DHT22;3369;49.906;8.598;2023-02-11T12:31:38;5.90;99.90
6666;DHT22;3369;49.906;8.598;2023-02-11T12:47:58;6.20;99.90
6666;DHT22;3369;49.906;8.598;2023-02-11T12:53:33;6.30;99.90
6666;DHT22;3369;49.906;8.598;2023-02-11T12:58:36;6.30;99.90
6666;DHT22;3369;49.906;8.598;2023-02-11T13:01:09;6.30;99.90
6666;DHT22;3369;49.906;8.598;2023-02-11T13:03:49;6.30;99.90
6666;DHT22;3369;49.906;8.598;2023-02-11T13:06:24;6.30;99.90
6666;DHT22;3369;49.906;8.598;2023-02-11T13:08:58;6.30;99.90
6666;DHT22;3369;49.906;8.598;2023-02-11T13:11:28;6.30;99.90
6666;DHT22;3369;49.906;8.598;2023-02-11T13:14:14;6.40;99.90
6666;DHT22;3369;49.906;8.598;2023-02-11T13:16:44;6.40;99.90
6666;DHT22;3369;49.906;8.598;2023-02-11T13:24:46;6.40;99.90
6666;DHT22;3369;49.906;8.598;2023-02-11T13:27:43;6.50;99.90
6666;DHT22;3369;49.906;8.598;2023-02-11T13:35:41;6.50;99.90
6666;DHT22;3369;49.906;8.598;2023-02-11T13:38:23;6.50;99.90
6666;DHT22;3369;49.906;8.598;2023-02-11T13:46:53;6.50;99.90
6666;DHT22;3369;49.906;8.598;2023-02-11T13:49:35;6.50;99.90
6666;DHT22;3369;49.906;8.598;2023-02-11T13:52:31;6.50;99.90
6666;DHT22;3369;49.906;8.598;2023-02-11T13:57:35;6.50;99.90
6666;DHT22;3369;49.906;8.598;2023-02-11T14:22:04;6.50;99.90
6666;DHT22;3369;49.906;8.598;2023-02-11T14:27:21;6.60;99.90
6666;DHT22;3369;49.906;8.598;2023-02-11T14:55:54;6.30;99.90
6666;DHT22;3369;49.906;8.598;2023-02-11T14:58:29;6.30;99.90
6666;DHT22;3369;49.906;8.598;2023-02-11T15:03:26;6.30;99.90
6666;DHT22;3369;49.906;8.598;2023-02-11T15:05:59;6.30;99.90
6666;DHT22;3369;49.906;8.598;2023-02-11T15:08:27;6.30;99.90
6666;DHT22;3369;49.906;8.598;2023-02-11T15:10:54;6.30;99.90
6666;DHT22;3369;49.906;8.598;2023-02-11T15:13:23;6.30;99.90
6666;DHT22;3369;49.906;8.598;2023-02-11T15:16:03;6.30;99.90
6666;DHT22;3369;49.906;8.598;2023-02-11T15:18:39;6.40;99.90
6666;DHT22;3369;49.906;8.598;2023-02-11T15:21:06;6.50;99.90
6666;DHT22;3369;49.906;8.598;2023-02-11T15:23:33;6.40;99.90
6666;DHT22;3369;49.906;8.598;2023-02-11T15:25:59;6.40;99.90
6666;DHT22;3369;49.906;8.598;2023-02-11T15:28:33;6.40;99.90
6666;DHT22;3369;49.906;8.598;2023-02-11T15:31:14;6.40;99.90
6666;DHT22;3369;49.906;8.598;2023-02-11T15:33:40;6.40;99.90
6666;DHT22;3369;49.906;8.598;2023-02-11T15:36:10;6.30;99.90
6666;DHT22;3369;49.906;8.598;2023-02-11T15:38:36;6.30;99.90
6666;DHT22;3369;49.906;8.598;2023-02-11T15:41:03;6.30;99.90
6666;DHT22;3369;49.906;8.598;2023-02-11T15:43:49;6.30;99.90
6666;DHT22;3369;49.906;8.598;2023-02-11T15:46:21;6.30;99.90
6666;DHT22;3369;49.906;8.598;2023-02-11T15:48:52;6.20;99.90
6666;DHT22;3369;49.906;8.598;2023-02-11T15:51:30;6.20;99.90
6666;DHT22;3369;49.906;8.598;2023-02-11T15:53:59;6.20;99.90
6666;DHT22;3369;49.906;8.598;2023-02-11T15:56:38;6.20;99.90
6666;DHT22;3369;49.906;8.598;2023-02-11T15:59:26;6.20;99.90
6666;DHT22;3369;49.906;8.598;2023-02-11T16:01:53;6.20;99.90
6666;DHT22;3369;49.906;8.598;2023-02-11T16:04:26;6.20;99.90
6666;DHT22;3369;49.906;8.598;2023-02-11T16:06:53;6.20;99.90
6666;DHT22;3369;49.906;8.598;2023-02-11T16:17:09;6.20;99.90
6666;DHT22;3369;49.906;8.598;2023-02-11T16:19:45;6.20;99.90
6666;DHT22;3369;49.906;8.598;2023-02-11T16:22:16;6.20;99.90
6666;DHT22;3369;49.906;8.598;2023-02-11T16:24:46;6.20;99.90
6666;DHT22;3369;49.906;8.598;2023-02-11T16:27:39;6.20;99.90
6666;DHT22;3369;49.906;8.598;2023-02-11T16:30:07;6.20;99.90
6666;DHT22;3369;49.906;8.598;2023-02-11T16:32:46;6.20;99.90
6666;DHT22;3369;49.906;8.598;2023-02-11T16:35:12;6.10;99.90
6666;DHT22;3369;49.906;8.598;2023-02-11T16:37:38;6.10;99.90
6666;DHT22;3369;49.906;8.598;2023-02-11T16:40:04;6.10;99.90
6666;DHT22;3369;49.906;8.598;2023-02-11T16:42:30;6.10;99.90
6666;DHT22;3369;49.906;8.598;2023-02-11T16:44:55;6.10;99.90
6666;DHT22;3369;49.906;8.598;2023-02-11T16:47:24;6.10;99.90
6666;DHT22;3369;49.906;8.598;2023-02-11T16:49:50;6.10;99.90
6666;DHT22;3369;49.906;8.598;2023-02-11T16:52:17;6.10;99.90
6666;DHT22;3369;49.906;8.598;2023-02-11T16:54:43;6.10;99.90
6666;DHT22;3369;49.906;8.598;2023-02-11T16:57:20;6.10;99.90
6666;DHT22;3369;49.906;8.598;2023-02-11T16:59:46;6.10;99.90
6666;DHT22;3369;49.906;8.598;2023-02-11T17:02:15;6.10;99.90
6666;DHT22;3369;49.906;8.598;2023-02-11T17:04:43;6.10;99.90
6666;DHT22;3369;49.906;8.598;2023-02-11T17:07:09;6.10;99.90
6666;DHT22;3369;49.906;8.598;2023-02-11T17:09:34;6.00;99.90
6666;DHT22;3369;49.906;8.598;2023-02-11T17:12:00;6.00;99.90
6666;DHT22;3369;49.906;8.598;2023-02-11T17:14:26;6.00;99.90
6666;DHT22;3369;49.906;8.598;2023-02-11T17:16:51;6.00;99.90
6666;DHT22;3369;49.906;8.598;2023-02-11T17:19:19;6.00;99.90
6666;DHT22;3369;49.906;8.598;2023-02-11T17:21:47;5.90;99.90
6666;DHT22;3369;49.906;8.598;2023-02-11T17:24:13;5.90;99.90
6666;DHT22;3369;49.906;8.598;2023-02-11T17:26:40;6.00;99.90
6666;DHT22;3369;49.906;8.598;2023-02-11T17:29:07;5.90;99.90
6666;DHT22;3369;49.906;8.598;2023-02-11T17:31:34;6.00;99.90
6666;DHT22;3369;49.906;8.598;2023-02-11T17:34:00;5.90;99.90
6666;DHT22;3369;49.906;8.598;2023-02-11T17:36:25;5.90;99.90
6666;DHT22;3369;49.906;8.598;2023-02-11T17:38:53;5.90;99.90
6666;DHT22;3369;49.906;8.598;2023-02-11T17:41:19;5.90;99.90
6666;DHT22;3369;49.906;8.598;2023-02-11T17:43:44;5.90;99.90
6666;DHT22;3369;49.906;8.598;2023-02-11T17:46:10;5.90;99.90
6666;DHT22;3369;49.906;8.598;2023-02-11T17:48:37;5.90;99.90
6666;DHT22;3369;49.906;8.598;2023-02-11T17:51:04;5.90;99.90
6666;DHT22;3369;49.906;8.598;2023-02-11T17:53:30;5.90;99.90
6666;DHT22;3369;49.906;8.598;2023-02-11T17:55:56;5.90;99.90
6666;DHT22;3369;49.906;8.598;2023-02-11T17:58:22;5.90;99.90
6666;DHT22;3369;49.906;8.598;2023-02-11T18:00:48;5.90;99.90
6666;DHT22;3369;49.906;8.598;2023-02-11T18:03:14;5.90;99.90
6666;DHT22;3369;49.906;8.598;2023-02-11T18:05:40;5.90;99.90
6666;DHT22;3369;49.906;8.598;2023-02-11T18:08:06;5.90;99.90
6666;DHT22;3369;49.906;8.598;2023-02-11T18:10:33;5.90;99.90
6666;DHT22;3369;49.906;8.598;2023-02-11T18:12:59;5.90;99.90
6666;DHT22;3369;49.906;8.598;2023-02-11T18:15:25;5.90;99.90
6666;DHT22;3369;49.906;8.598;2023-02-11T18:17:51;5.90;99.90
6666;DHT22;3369;49.906;8.598;2023-02-11T18:20:17;5.90;99.90
6666;DHT22;3369;49.906;8.598;2023-02-11T18:22:43;5.90;99.90
6666;DHT22;3369;49.906;8.598;2023-02-11T18:25:12;5.90;99.90
6666;DHT22;3369;49.906;8.598;2023-02-11T18:27:38;5.90;99.90
6666;DHT22;3369;49.906;8.598;2023-02-11T18:30:05;5.80;99.90
6666;DHT22;3369;49.906;8.598;2023-02-11T18:32:31;5.80;99.90
6666;DHT22;3369;49.906;8.598;2023-02-11T18:34:57;5.80;99.90
6666;DHT22;3369;49.906;8.598;2023-02-11T18:37:22;5.80;99.90
6666;DHT22;3369;49.906;8.598;2023-02-11T18:39:48;5.80;99.90
6666;DHT22;3369;49.906;8.598;2023-02-11T18:42:14;5.90;99.90
6666;DHT22;3369;49.906;8.598;2023-02-11T18:44:40;5.80;99.90
6666;DHT22;3369;49.906;8.598;2023-02-11T18:47:05;5.80;99.90
6666;DHT22;3369;49.906;8.598;2023-02-11T18:49:31;5.80;99.90
6666;DHT22;3369;49.906;8.598;2023-02-11T18:51:57;5.80;99.90
6666;DHT22;3369;49.906;8.598;2023-02-11T18:54:23;5.80;99.90
6666;DHT22;3369;49.906;8.598;2023-02-11T18:56:49;5.80;99.90
6666;DHT22;3369;49.906;8.598;2023-02-11T18:59:15;5.80;99.90
6666;DHT22;3369;49.906;8.598;2023-02-11T19:01:41;5.80;99.90
6666;DHT22;3369;49.906;8.598;2023-02-11T19:04:11;5.80;99.90
6666;DHT22;3369;49.906;8.598;2023-02-11T19:06:39;5.80;99.90
6666;DHT22;3369;49.906;8.598;2023-02-11T19:09:07;5.80;99.90
6666;DHT22;3369;49.906;8.598;2023-02-11T19:11:38;5.80;99.90
6666;DHT22;3369;49.906;8.598;2023-02-11T19:14:24;5.80;99.90
6666;DHT22;3369;49.906;8.598;2023-02-11T19:16:52;5.80;99.90
6666;DHT22;3369;49.906;8.598;2023-02-11T19:19:19;5.80;99.90
6666;DHT22;3369;49.906;8.598;2023-02-11T19:21:46;5.80;99.90
6666;DHT22;3369;49.906;8.598;2023-02-11T19:24:14;5.80;99.90
6666;DHT22;3369;49.906;8.598;2023-02-11T19:26:41;5.80;99.90
6666;DHT22;3369;49.906;8.598;2023-02-11T19:29:07;5.80;99.90
6666;DHT22;3369;49.906;8.598;2023-02-11T19:31:33;5.80;99.90
6666;DHT22;3369;49.906;8.598;2023-02-11T19:34:00;5.80;99.90
6666;DHT22;3369;49.906;8.598;2023-02-11T19:36:26;5.80;99.90
6666;DHT22;3369;49.906;8.598;2023-02-11T19:38:52;5.80;99.90
6666;DHT22;3369;49.906;8.598;2023-02-11T19:41:18;5.80;99.90
6666;DHT22;3369;49.906;8.598;2023-02-11T19:43:47;5.80;99.90